Sivas Airport Sivas TR
ICAO: LTAR
IATA: VAS
Category: Medium
Scheduled Services: Yes

Elevation: 5236 ft
TransAlt. 12000 ft.

Airport Communications:
GND:121.9
TWR:118.1

LTAR Zoom In..

If you have problems with the map follow the link
https://www.worldairports.se/pages/airport.php?
ICAO=LTAR

Runways:

(A) RW 01 length 12503 ft width 148 ft
ILS 109.10 / hdg 13

(B) RW 19 length 12503 ft width 148 ft
---- / hdg 193

Location; LTAR
Day. 13 / Time. 20.14 Zulu
* QNH: 1022
* Temperature: -14° c. -6.8°f.
* Wind from: 130° Speed 05 kn.
Dewpoint: -15° c.
Visibility: 9000 m.
Clouds: Scattered 3000 ft.
Clouds: Scattered 8000 ft.

LTAR 132014Z 13005KT 9000 SCT030 SCT080 M14/M15 Q1022 RMK RWY19 00000KT


Wind From 130°
Speed 05 kn.

 
 
jpsmedia.com for Web Design worldairports.se 2018   terms of use